This is the latest recevied weather packets stored in our database for station/object WX7EM. If no packets are shown the sender has not sent any weather packets the latest 1 day(s).
| Time | Temp. | Humidity | Pressure | Rain* | Wind** | Luminosity | Snow |
|---|---|---|---|---|---|---|---|
| 1836274571 | 18.89° C | 69% | 1020 hPa | 0 mm | 0 m/s | 0 W/m² | - |
| 1836274425 | 18.33° C | 71% | 1020.3 hPa | 0 mm | 0 m/s | 0 W/m² | - |
| 1836274270 | 18.89° C | 69% | 1019.9 hPa | 0 mm | 0 m/s | 0 W/m² | - |
| 1836274124 | 18.33° C | 70% | 1020.2 hPa | 0 mm | 0 m/s | 0 W/m² | - |
| 1836273969 | 18.89° C | 68% | 1019.7 hPa | 0 mm | 0 m/s | 0 W/m² | - |
| 1778053273 | 10.56° C | 98% | 1016.9 hPa | 0 mm | 0 m/s | 0 W/m² | - |
| 1778052970 | 10.56° C | 98% | 1017 hPa | 0 mm | 0 m/s | 0 W/m² | - |
| 1778052667 | 10.56° C | 98% | 1016.9 hPa | 0 mm | 0.45 m/s, 121° | 0 W/m² | - |
| 1778052364 | 10.56° C | 98% | 1017 hPa | 0 mm | 0.45 m/s, 128° | 0 W/m² | - |
| 1778052062 | 10.56° C | 98% | 1017.1 hPa | 0 mm | 0 m/s | 0 W/m² | - |
| 1778051759 | 10.56° C | 98% | 1016.7 hPa | 0 mm | 0 m/s | 0 W/m² | - |
| 1778051457 | 10.56° C | 98% | 1016.8 hPa | 0 mm | 0 m/s | 0 W/m² | - |
| 1778051154 | 10.56° C | 97% | 1016.7 hPa | 0 mm | 0 m/s | 0 W/m² | - |
| 1778050851 | 10.56° C | 97% | 1016.8 hPa | 0 mm | 0 m/s | 0 W/m² | - |
| 1778050549 | 10.56° C | 97% | 1016.7 hPa | 0 mm | 0 m/s | 0 W/m² | - |
| 1778050245 | 11.11° C | 97% | 1016.4 hPa | 0 mm | 0 m/s | 0 W/m² | - |
| 1778049942 | 11.11° C | 97% | 1016.5 hPa | 0 mm | 0 m/s | 0 W/m² | - |
| 1778049643 | 11.11° C | 97% | 1016.5 hPa | 0 mm | 0 m/s | 0 W/m² | - |
| 1778049342 | 11.11° C | 97% | 1016.5 hPa | 0 mm | 0 m/s | 0 W/m² | - |
| 1778049038 | 11.11° C | 97% | 1016.4 hPa | 0 mm | 0 m/s | 0 W/m² | - |
| 1778048737 | 11.11° C | 97% | 1016.5 hPa | 0 mm | 0 m/s | 0 W/m² | - |
| 1778048433 | 11.11° C | 96% | 1016.4 hPa | 0 mm | 0.45 m/s, 124° | 0 W/m² | - |
| 1778048129 | 11.11° C | 97% | 1016.4 hPa | 0 mm | 0.45 m/s, 114° | 0 W/m² | - |
| 1778047827 | 11.11° C | 96% | 1016.4 hPa | 0 mm | 0 m/s | 0 W/m² | - |
| 1778047525 | 11.11° C | 96% | 1016.4 hPa | 0 mm | 0 m/s | 0 W/m² | - |
* Rain latest hour (hover to see other rain measurements)
** Current wind speed in m/s (hover to see current wind gust speed)